createdAt,value
2018-05-17T00:00:26.975Z,98113.05
2018-05-17T00:01:30.264Z,98122.61
2018-05-17T00:02:33.074Z,98117.78
2018-05-17T00:03:35.924Z,98114.27
2018-05-17T00:04:38.697Z,98120.04
2018-05-17T00:05:41.490Z,98124.99
2018-05-17T00:06:44.301Z,98123.01
2018-05-17T00:07:47.459Z,98129.95
2018-05-17T00:08:50.268Z,98130.33
2018-05-17T00:09:53.084Z,98129.12
2018-05-17T00:10:55.889Z,98129.77
2018-05-17T00:11:58.699Z,98127.50
2018-05-17T00:13:01.521Z,98125.55
2018-05-17T00:14:04.705Z,98120.33
2018-05-17T00:15:07.512Z,98121.52
2018-05-17T00:16:10.390Z,98118.18
2018-05-17T00:17:13.216Z,98125.34
2018-05-17T00:18:15.961Z,98130.88
2018-05-17T00:19:18.794Z,98125.70
2018-05-17T00:20:21.970Z,98120.00
2018-05-17T00:21:24.757Z,98118.51
2018-05-17T00:22:27.553Z,98115.25
2018-05-17T00:23:30.375Z,98113.33
2018-05-17T00:24:33.175Z,98119.06
2018-05-17T00:25:35.956Z,98118.22
2018-05-17T00:26:40.410Z,98108.12
2018-05-17T00:27:43.194Z,98116.64
2018-05-17T00:28:45.987Z,98117.95
2018-05-17T00:29:48.758Z,98114.93
2018-05-17T00:30:51.538Z,98113.41
2018-05-17T00:31:54.368Z,98115.71
2018-05-17T00:32:57.762Z,98113.33
2018-05-17T00:34:00.557Z,98114.06
2018-05-17T00:35:03.360Z,98115.36
2018-05-17T00:36:06.217Z,98123.39
2018-05-17T00:37:09.097Z,98113.88
2018-05-17T00:38:11.974Z,98118.33
2018-05-17T00:39:16.223Z,98118.39
2018-05-17T00:40:19.364Z,98117.19
2018-05-17T00:41:22.439Z,98115.20
2018-05-17T00:42:26.195Z,98121.47
2018-05-17T00:43:28.967Z,98119.43
2018-05-17T00:44:31.759Z,98111.13
2018-05-17T00:45:34.974Z,98113.82
2018-05-17T00:46:37.769Z,98119.66
2018-05-17T00:47:40.830Z,98113.34
2018-05-17T00:48:44.202Z,98120.97
2018-05-17T00:49:47.131Z,98117.39
2018-05-17T00:50:49.976Z,98112.02
2018-05-17T00:51:53.271Z,98116.19
2018-05-17T00:52:56.959Z,98120.37
2018-05-17T00:53:59.743Z,98117.02
2018-05-17T00:55:02.593Z,98120.86
2018-05-17T00:56:06.323Z,98120.19
2018-05-17T00:57:10.594Z,98122.79
2018-05-17T00:58:14.305Z,98125.98
2018-05-17T00:59:18.270Z,98122.78
2018-05-17T01:00:21.128Z,98122.18
2018-05-17T01:01:23.922Z,98121.08
2018-05-17T01:02:26.714Z,98116.14
2018-05-17T01:03:30.463Z,98117.73
2018-05-17T01:04:33.659Z,98114.38
2018-05-17T01:05:36.757Z,98121.58
2018-05-17T01:06:41.113Z,98122.84
2018-05-17T01:07:44.723Z,98117.13
2018-05-17T01:08:47.943Z,98112.77
2018-05-17T01:09:50.926Z,98115.02
2018-05-17T01:10:57.254Z,98121.97
2018-05-17T01:12:01.554Z,98115.02
2018-05-17T01:13:04.317Z,98116.56
2018-05-17T01:14:07.137Z,98111.37
2018-05-17T01:15:09.916Z,98116.61
2018-05-17T01:16:12.923Z,98119.75
2018-05-17T01:17:18.017Z,98114.01
2018-05-17T01:18:21.462Z,98115.84
2018-05-17T01:19:24.600Z,98120.11
2018-05-17T01:20:27.397Z,98117.98
2018-05-17T01:21:30.194Z,98118.42
2018-05-17T01:22:33.036Z,98122.16
2018-05-17T01:23:36.689Z,98123.92
2018-05-17T01:24:39.960Z,98123.59
2018-05-17T01:25:42.808Z,98118.37
2018-05-17T01:26:45.651Z,98120.55
2018-05-17T01:27:48.431Z,98121.25
2018-05-17T01:28:51.235Z,98128.34
2018-05-17T01:29:55.081Z,98127.63
2018-05-17T01:30:57.878Z,98121.04
2018-05-17T01:32:00.862Z,98121.12
2018-05-17T01:33:03.655Z,98127.14
2018-05-17T01:34:08.033Z,98126.15
2018-05-17T01:35:11.351Z,98127.96
2018-05-17T01:36:14.965Z,98129.06
2018-05-17T01:37:19.382Z,98127.19
2018-05-17T01:38:22.175Z,98130.59
2018-05-17T01:39:24.983Z,98139.39
2018-05-17T01:40:27.821Z,98132.19
2018-05-17T01:41:30.654Z,98128.73
2018-05-17T01:42:33.913Z,98132.19
2018-05-17T01:43:36.727Z,98127.05
2018-05-17T01:44:39.492Z,98136.08
2018-05-17T01:45:42.267Z,98138.45
2018-05-17T01:46:45.073Z,98126.16
2018-05-17T01:47:47.847Z,98137.14
2018-05-17T01:48:51.135Z,98134.21
2018-05-17T01:49:53.965Z,98137.95
2018-05-17T01:50:56.749Z,98140.30
2018-05-17T01:51:59.524Z,98135.03
2018-05-17T01:53:02.324Z,98137.61
2018-05-17T01:54:05.108Z,98133.17
2018-05-17T01:55:08.359Z,98137.95
2018-05-17T01:56:11.157Z,98139.38
2018-05-17T01:57:13.943Z,98133.61
2018-05-17T01:58:16.753Z,98135.48
2018-05-17T01:59:19.547Z,98139.06
2018-05-17T02:00:22.347Z,98137.91
2018-05-17T02:01:25.644Z,98140.47
2018-05-17T02:02:28.490Z,98137.03
2018-05-17T02:03:31.281Z,98145.03
2018-05-17T02:04:34.084Z,98145.03
2018-05-17T02:05:36.903Z,98145.59
2018-05-17T02:06:39.905Z,98150.94
2018-05-17T02:07:43.029Z,98151.91
2018-05-17T02:08:45.787Z,98154.05
2018-05-17T02:09:48.660Z,98152.62
2018-05-17T02:10:51.420Z,98147.73
2018-05-17T02:11:54.253Z,98148.66
2018-05-17T02:12:57.074Z,98154.06
2018-05-17T02:14:00.306Z,98155.36
2018-05-17T02:15:03.102Z,98152.73
2018-05-17T02:16:05.905Z,98152.12
2018-05-17T02:17:08.689Z,98159.81
2018-05-17T02:18:11.475Z,98150.85
2018-05-17T02:19:14.263Z,98153.98
2018-05-17T02:20:17.516Z,98159.70
2018-05-17T02:21:20.289Z,98153.61
2018-05-17T02:22:23.119Z,98154.03
2018-05-17T02:23:25.933Z,98158.28
2018-05-17T02:24:28.752Z,98159.00
2018-05-17T02:25:31.579Z,98156.45
2018-05-17T02:26:35.666Z,98163.48
2018-05-17T02:27:38.456Z,98163.50
2018-05-17T02:28:41.466Z,98161.06
2018-05-17T02:29:44.451Z,98161.55
2018-05-17T02:30:47.522Z,98168.09
2018-05-17T02:31:50.316Z,98168.13
2018-05-17T02:32:53.443Z,98164.66
2018-05-17T02:33:56.234Z,98166.06
2018-05-17T02:34:59.005Z,98169.48
2018-05-17T02:36:01.803Z,98168.05
2018-05-17T02:37:04.606Z,98159.55
2018-05-17T02:38:07.385Z,98168.17
2018-05-17T02:39:10.493Z,98162.88
2018-05-17T02:40:13.565Z,98172.44
2018-05-17T02:41:16.400Z,98168.38
2018-05-17T02:42:19.175Z,98167.48
2018-05-17T02:43:21.993Z,98170.00
2018-05-17T02:44:24.852Z,98166.22
2018-05-17T02:45:28.221Z,98171.59
2018-05-17T02:46:31.013Z,98168.97
2018-05-17T02:47:33.803Z,98167.48
2018-05-17T02:48:36.582Z,98169.08
2018-05-17T02:49:39.400Z,98166.86
2018-05-17T02:50:42.204Z,98168.88
2018-05-17T02:51:45.366Z,98166.26
2018-05-17T02:52:48.166Z,98167.85
2018-05-17T02:53:51.333Z,98164.63
2018-05-17T02:54:54.722Z,98170.88
2018-05-17T02:55:58.204Z,98164.02
2018-05-17T02:57:01.019Z,98173.00
2018-05-17T02:58:05.340Z,98164.98
2018-05-17T02:59:08.157Z,98173.00
2018-05-17T03:00:10.972Z,98169.41
2018-05-17T03:01:13.744Z,98166.59
2018-05-17T03:02:16.590Z,98163.20
2018-05-17T03:03:19.384Z,98177.05
2018-05-17T03:04:22.512Z,98169.23
2018-05-17T03:05:25.339Z,98175.74
2018-05-17T03:06:28.120Z,98169.35
2018-05-17T03:07:30.915Z,98171.73
2018-05-17T03:08:33.702Z,98172.77
2018-05-17T03:09:36.490Z,98175.99
2018-05-17T03:10:39.713Z,98180.40
2018-05-17T03:11:42.483Z,98179.63
2018-05-17T03:12:45.243Z,98177.61
2018-05-17T03:13:48.051Z,98185.59
2018-05-17T03:14:50.864Z,98185.84
2018-05-17T03:15:54.067Z,98189.01
2018-05-17T03:16:57.218Z,98187.26
2018-05-17T03:18:00.018Z,98191.62
2018-05-17T03:19:02.983Z,98189.78
2018-05-17T03:20:05.915Z,98188.28
2018-05-17T03:21:08.732Z,98192.22
2018-05-17T03:22:12.500Z,98193.16
2018-05-17T03:23:15.691Z,98187.97
2018-05-17T03:24:18.444Z,98189.91
2018-05-17T03:25:21.239Z,98186.61
2018-05-17T03:26:24.063Z,98191.84
2018-05-17T03:27:26.831Z,98196.29
2018-05-17T03:28:29.614Z,98194.53
2018-05-17T03:29:32.903Z,98189.97
2018-05-17T03:30:36.007Z,98188.77
2018-05-17T03:31:38.813Z,98190.06
2018-05-17T03:32:41.732Z,98191.28
2018-05-17T03:33:44.482Z,98195.00
2018-05-17T03:34:47.311Z,98194.73
2018-05-17T03:35:50.556Z,98195.33
2018-05-17T03:36:53.383Z,98203.97
2018-05-17T03:37:56.492Z,98199.55
2018-05-17T03:38:59.262Z,98200.13
2018-05-17T03:40:02.246Z,98205.50
2018-05-17T03:41:06.773Z,98203.67
2018-05-17T03:42:10.879Z,98205.00
2018-05-17T03:43:13.675Z,98197.85
2018-05-17T03:44:16.471Z,98210.38
2018-05-17T03:45:19.630Z,98210.46
2018-05-17T03:46:22.687Z,98209.87
2018-05-17T03:47:26.257Z,98209.27
2018-05-17T03:48:29.041Z,98207.77
2018-05-17T03:49:31.844Z,98212.22
2018-05-17T03:50:34.629Z,98211.31
2018-05-17T03:51:37.407Z,98212.56
2018-05-17T03:52:40.160Z,98215.75
2018-05-17T03:53:43.333Z,98215.03
2018-05-17T03:54:46.136Z,98217.73
2018-05-17T03:55:48.914Z,98215.44
2018-05-17T03:56:51.732Z,98216.29
2018-05-17T03:57:54.527Z,98222.58
2018-05-17T03:58:57.287Z,98219.39
2018-05-17T04:00:00.528Z,98221.32
2018-05-17T04:01:03.325Z,98215.84
2018-05-17T04:02:06.121Z,98208.64
2018-05-17T04:03:08.918Z,98217.14
2018-05-17T04:04:11.751Z,98217.84
2018-05-17T04:05:14.959Z,98213.41
2018-05-17T04:06:17.760Z,98218.67
2018-05-17T04:07:20.557Z,98215.53
2018-05-17T04:08:23.349Z,98218.31
2018-05-17T04:09:26.131Z,98222.06
2018-05-17T04:10:28.924Z,98223.98
2018-05-17T04:11:31.696Z,98225.67
2018-05-17T04:12:35.763Z,98229.81
2018-05-17T04:13:38.546Z,98229.53
2018-05-17T04:14:41.305Z,98229.43
2018-05-17T04:15:44.104Z,98231.98
2018-05-17T04:16:46.880Z,98229.53
2018-05-17T04:17:50.004Z,98228.02
2018-05-17T04:18:52.939Z,98235.14
2018-05-17T04:19:55.732Z,98229.60
2018-05-17T04:20:58.593Z,98228.41
2018-05-17T04:22:01.405Z,98224.05
2018-05-17T04:23:04.183Z,98230.20
2018-05-17T04:24:07.488Z,98227.74
2018-05-17T04:25:10.284Z,98233.22
2018-05-17T04:26:13.087Z,98226.63
2018-05-17T04:27:15.929Z,98227.60
2018-05-17T04:28:18.713Z,98228.02
2018-05-17T04:29:21.910Z,98235.84
2018-05-17T04:30:25.118Z,98231.70
2018-05-17T04:31:27.916Z,98231.08
2018-05-17T04:32:30.736Z,98234.66
2018-05-17T04:33:33.592Z,98236.94
2018-05-17T04:34:36.410Z,98241.08
2018-05-17T04:35:39.198Z,98239.42
2018-05-17T04:36:42.324Z,98241.85
2018-05-17T04:37:45.122Z,98240.97
2018-05-17T04:38:47.946Z,98235.95
2018-05-17T04:39:50.761Z,98244.02
2018-05-17T04:40:53.591Z,98241.95
2018-05-17T04:41:56.359Z,98244.80
2018-05-17T04:42:59.552Z,98245.25
2018-05-17T04:44:02.392Z,98249.15
2018-05-17T04:45:05.521Z,98239.70
2018-05-17T04:46:08.319Z,98241.50
2018-05-17T04:47:11.137Z,98247.84
2018-05-17T04:48:14.259Z,98251.32
2018-05-17T04:49:17.443Z,98247.11
2018-05-17T04:50:20.237Z,98247.01
2018-05-17T04:51:23.095Z,98243.81
2018-05-17T04:52:25.884Z,98243.18
2018-05-17T04:53:28.635Z,98247.61
2018-05-17T04:54:31.787Z,98243.85
2018-05-17T04:55:35.066Z,98250.83
2018-05-17T04:56:37.927Z,98246.48
2018-05-17T04:57:40.721Z,98245.36
2018-05-17T04:58:43.621Z,98249.84
2018-05-17T04:59:46.466Z,98243.53
2018-05-17T05:00:49.310Z,98253.05
2018-05-17T05:01:52.569Z,98253.15
2018-05-17T05:02:56.097Z,98250.62
2018-05-17T05:03:59.068Z,98250.80
2018-05-17T05:05:02.298Z,98248.02
2018-05-17T05:06:06.350Z,98258.83
2018-05-17T05:07:09.618Z,98259.47
2018-05-17T05:08:12.965Z,98249.78
2018-05-17T05:09:15.811Z,98253.15
2018-05-17T05:10:19.198Z,98252.05
2018-05-17T05:11:22.034Z,98249.20
2018-05-17T05:12:26.044Z,98252.58
2018-05-17T05:13:28.874Z,98246.46
2018-05-17T05:14:32.106Z,98251.80
2018-05-17T05:15:35.846Z,98248.98
2018-05-17T05:16:38.698Z,98247.39
2018-05-17T05:17:41.570Z,98251.98
2018-05-17T05:18:44.421Z,98248.22
2018-05-17T05:19:47.242Z,98253.09
2018-05-17T05:20:50.373Z,98255.03
2018-05-17T05:21:53.186Z,98252.78
2018-05-17T05:22:55.972Z,98256.19
2018-05-17T05:23:58.806Z,98257.66
2018-05-17T05:25:01.909Z,98259.16
2018-05-17T05:26:04.721Z,98259.76
2018-05-17T05:27:08.053Z,98253.89
2018-05-17T05:28:10.898Z,98261.82
2018-05-17T05:29:13.758Z,98255.05
2018-05-17T05:30:17.756Z,98260.45
2018-05-17T05:31:20.679Z,98257.06
2018-05-17T05:32:23.497Z,98257.02
2018-05-17T05:33:27.365Z,98262.88
2018-05-17T05:34:30.206Z,98258.56
2018-05-17T05:35:33.665Z,98262.13
2018-05-17T05:36:37.144Z,98259.27
2018-05-17T05:37:40.586Z,98260.08
2018-05-17T05:38:43.981Z,98263.45
2018-05-17T05:39:47.352Z,98262.30
2018-05-17T05:40:50.175Z,98262.55
2018-05-17T05:41:53.014Z,98262.26
2018-05-17T05:42:55.846Z,98264.59
2018-05-17T05:43:58.644Z,98261.73
2018-05-17T05:45:01.595Z,98269.41
2018-05-17T05:46:04.616Z,98269.46
2018-05-17T05:47:07.467Z,98270.47
2018-05-17T05:48:10.458Z,98271.80
2018-05-17T05:49:13.282Z,98274.21
2018-05-17T05:50:16.080Z,98269.63
2018-05-17T05:51:21.088Z,98274.54
2018-05-17T05:52:24.312Z,98275.14
2018-05-17T05:53:27.284Z,98270.00
2018-05-17T05:54:30.143Z,98281.20
2018-05-17T05:55:32.930Z,98276.91
2018-05-17T05:56:35.743Z,98272.93
2018-05-17T05:57:38.532Z,98268.48
2018-05-17T05:58:41.697Z,98276.31
2018-05-17T05:59:44.504Z,98272.44
2018-05-17T06:00:47.342Z,98265.56
2018-05-17T06:01:50.136Z,98269.30
2018-05-17T06:02:52.896Z,98273.42
2018-05-17T06:05:07.402Z,98266.94
2018-05-17T06:06:10.446Z,98278.55
2018-05-17T06:07:13.222Z,98274.91
2018-05-17T06:08:15.982Z,98271.91
2018-05-17T06:09:18.800Z,98273.38
2018-05-17T06:10:21.628Z,98270.84
2018-05-17T06:11:24.791Z,98276.58
2018-05-17T06:12:27.724Z,98278.86
2018-05-17T06:13:30.555Z,98285.16
2018-05-17T06:14:33.560Z,98281.25
2018-05-17T06:15:36.338Z,98285.49
2018-05-17T06:16:39.184Z,98288.05
2018-05-17T06:17:42.531Z,98280.73
2018-05-17T06:18:45.325Z,98285.11
2018-05-17T06:19:48.118Z,98287.84
2018-05-17T06:20:51.039Z,98284.29
2018-05-17T06:21:53.872Z,98286.92
2018-05-17T06:22:56.685Z,98281.33
2018-05-17T06:23:59.881Z,98285.91
2018-05-17T06:25:02.778Z,98284.02
2018-05-17T06:26:05.606Z,98285.20
2018-05-17T06:27:08.411Z,98276.69
2018-05-17T06:28:11.205Z,98287.48
2018-05-17T06:29:14.025Z,98286.59
2018-05-17T06:30:17.372Z,98279.22
2018-05-17T06:31:20.194Z,98281.64
2018-05-17T06:32:23.050Z,98282.28
2018-05-17T06:33:25.886Z,98286.47
2018-05-17T06:34:28.734Z,98281.59
2018-05-17T06:35:31.551Z,98281.59
2018-05-17T06:36:35.419Z,98294.14
2018-05-17T06:37:38.417Z,98291.27
2018-05-17T06:38:41.189Z,98289.86
2018-05-17T06:39:44.033Z,98285.59
2018-05-17T06:40:46.826Z,98289.56
2018-05-17T06:41:49.589Z,98289.80
2018-05-17T06:42:52.865Z,98291.73
2018-05-17T06:43:55.825Z,98285.02
2018-05-17T06:44:59.549Z,98289.66
2018-05-17T06:46:02.455Z,98283.83
2018-05-17T06:47:05.284Z,98293.16
2018-05-17T06:48:08.152Z,98275.33
2018-05-17T06:49:10.976Z,98285.66
2018-05-17T06:50:14.103Z,98287.98
2018-05-17T06:51:16.985Z,98282.59
2018-05-17T06:52:20.100Z,98278.56
2018-05-17T06:53:22.919Z,98286.15
2018-05-17T06:54:26.090Z,98286.66
2018-05-17T06:55:29.083Z,98285.66
2018-05-17T06:56:32.151Z,98286.98
2018-05-17T06:57:35.077Z,98289.44
2018-05-17T06:58:38.770Z,98291.55
2018-05-17T06:59:42.735Z,98292.91
2018-05-17T07:00:47.459Z,98292.88
2018-05-17T07:01:52.678Z,98287.20
2018-05-17T07:02:55.455Z,98290.36
2018-05-17T07:03:59.273Z,98289.75
2018-05-17T07:05:02.099Z,98288.63
2018-05-17T07:06:04.904Z,98293.98
2018-05-17T07:07:08.141Z,98292.97
2018-05-17T07:08:11.765Z,98296.03
2018-05-17T07:09:14.726Z,98295.28
2018-05-17T07:10:17.560Z,98295.78
2018-05-17T07:11:20.440Z,98285.16
2018-05-17T07:12:23.326Z,98285.47
2018-05-17T07:13:26.743Z,98294.00
2018-05-17T07:14:29.565Z,98289.03
2018-05-17T07:15:32.385Z,98284.75
2018-05-17T07:16:35.165Z,98292.44
2018-05-17T07:17:37.955Z,98289.81
2018-05-17T07:18:41.397Z,98288.27
2018-05-17T07:19:44.193Z,98285.77
2018-05-17T07:20:46.982Z,98287.66
2018-05-17T07:21:49.749Z,98288.22
2018-05-17T07:22:52.539Z,98281.70
2018-05-17T07:23:55.779Z,98288.52
2018-05-17T07:24:58.683Z,98285.61
2018-05-17T07:27:03.943Z,98295.39
2018-05-17T07:28:06.972Z,98291.88
2018-05-17T07:29:10.032Z,98293.58
2018-05-17T07:30:12.892Z,98291.30
2018-05-17T07:31:15.759Z,98292.91
2018-05-17T07:32:19.081Z,98293.68
2018-05-17T07:33:21.961Z,98296.11
2018-05-17T07:34:24.820Z,98302.61
2018-05-17T07:35:27.661Z,98296.94
2018-05-17T07:36:30.501Z,98292.38
2018-05-17T07:37:33.371Z,98298.69
2018-05-17T07:38:36.321Z,98293.89
2018-05-17T07:39:39.262Z,98299.13
2018-05-17T07:40:42.915Z,98293.77
2018-05-17T07:41:45.770Z,98295.11
2018-05-17T07:42:48.685Z,98292.97
2018-05-17T07:43:51.935Z,98296.05
2018-05-17T07:44:54.741Z,98297.47
2018-05-17T07:45:57.602Z,98297.38
2018-05-17T07:47:00.430Z,98290.98
2018-05-17T07:48:03.195Z,98288.02
2018-05-17T07:49:05.999Z,98291.34
2018-05-17T07:50:09.163Z,98288.40
2018-05-17T07:51:11.982Z,98293.47
2018-05-17T07:52:14.984Z,98299.10
2018-05-17T07:53:17.974Z,98290.95
2018-05-17T07:54:20.771Z,98291.70
2018-05-17T07:55:23.526Z,98294.25
2018-05-17T07:56:26.808Z,98293.33
2018-05-17T07:57:29.666Z,98292.80
2018-05-17T07:58:32.543Z,98297.54
2018-05-17T07:59:35.520Z,98297.79
2018-05-17T08:00:38.404Z,98307.01
2018-05-17T08:01:41.339Z,98299.00
2018-05-17T08:02:44.680Z,98299.39
2018-05-17T08:03:47.845Z,98306.09
2018-05-17T08:04:50.701Z,98307.22
2018-05-17T08:05:53.590Z,98301.38
2018-05-17T08:06:56.662Z,98300.48
2018-05-17T08:07:59.465Z,98300.63
2018-05-17T08:09:02.599Z,98306.34
2018-05-17T08:10:05.417Z,98298.64
2018-05-17T08:11:08.813Z,98311.02
2018-05-17T08:12:12.144Z,98313.09
2018-05-17T08:13:14.910Z,98312.71
2018-05-17T08:14:17.804Z,98316.33
2018-05-17T08:15:21.090Z,98313.89
2018-05-17T08:16:23.943Z,98310.63
2018-05-17T08:17:26.753Z,98315.47
2018-05-17T08:18:29.533Z,98303.20
2018-05-17T08:19:32.469Z,98308.04
2018-05-17T08:20:35.330Z,98304.73
2018-05-17T08:21:38.611Z,98307.11
2018-05-17T08:22:43.580Z,98305.51
2018-05-17T08:23:46.557Z,98306.26
2018-05-17T08:24:49.376Z,98303.61
2018-05-17T08:25:52.212Z,98304.48
2018-05-17T08:26:55.051Z,98306.27
2018-05-17T08:27:58.353Z,98306.80
2018-05-17T08:29:01.226Z,98306.34
2018-05-17T08:30:04.143Z,98304.57
2018-05-17T08:31:06.927Z,98307.25
2018-05-17T08:32:09.743Z,98303.13
2018-05-17T08:33:12.601Z,98308.09
2018-05-17T08:34:16.444Z,98311.77
2018-05-17T08:35:19.433Z,98315.56
2018-05-17T08:36:22.586Z,98311.86
2018-05-17T08:37:25.507Z,98310.01
2018-05-17T08:38:28.362Z,98307.09
2018-05-17T08:39:31.229Z,98318.32
2018-05-17T08:40:34.499Z,98320.03
2018-05-17T08:41:37.314Z,98314.97
2018-05-17T08:42:40.400Z,98311.10
2018-05-17T08:43:43.296Z,98313.70
2018-05-17T08:44:46.152Z,98310.50
2018-05-17T08:45:48.936Z,98310.95
2018-05-17T08:46:53.356Z,98306.20
2018-05-17T08:47:56.194Z,98308.94
2018-05-17T08:48:59.054Z,98313.38
2018-05-17T08:50:01.892Z,98313.50
2018-05-17T08:51:04.713Z,98312.23
2018-05-17T08:52:07.499Z,98314.53
2018-05-17T08:53:10.779Z,98317.69
2018-05-17T08:54:13.628Z,98313.39
2018-05-17T08:55:16.465Z,98316.16
2018-05-17T08:56:19.414Z,98316.47
2018-05-17T08:57:22.373Z,98312.00
2018-05-17T08:58:25.241Z,98314.78
2018-05-17T08:59:28.647Z,98319.22
2018-05-17T09:00:31.615Z,98317.52
2018-05-17T09:01:34.972Z,98315.69
2018-05-17T09:02:38.184Z,98322.89
2018-05-17T09:03:41.495Z,98323.75
2018-05-17T09:04:45.788Z,98319.59
2018-05-17T09:05:50.186Z,98318.39
2018-05-17T09:06:53.247Z,98314.30
2018-05-17T09:07:56.097Z,98317.22
2018-05-17T09:08:58.928Z,98321.90
2018-05-17T09:10:01.801Z,98317.73
2018-05-17T09:11:04.652Z,98320.31
2018-05-17T09:12:08.181Z,98313.54
2018-05-17T09:13:11.003Z,98317.86
2018-05-17T09:14:14.124Z,98315.26
2018-05-17T09:15:17.117Z,98315.69
2018-05-17T09:16:19.952Z,98318.47
2018-05-17T09:17:22.763Z,98310.19
2018-05-17T09:18:26.091Z,98312.23
2018-05-17T09:19:28.951Z,98311.83
2018-05-17T09:20:31.820Z,98310.54
2018-05-17T09:21:34.571Z,98316.23
2018-05-17T09:22:37.892Z,98312.09
2018-05-17T09:23:41.158Z,98318.48
2018-05-17T09:24:44.511Z,98315.56
2018-05-17T09:25:47.297Z,98312.32
2018-05-17T09:26:50.114Z,98310.58
2018-05-17T09:27:52.939Z,98311.31
2018-05-17T09:28:55.749Z,98313.67
2018-05-17T09:29:58.602Z,98306.87
2018-05-17T09:31:01.730Z,98307.63
2018-05-17T09:32:04.605Z,98303.46
2018-05-17T09:33:08.623Z,98316.16
2018-05-17T09:34:11.483Z,98319.52
2018-05-17T09:35:15.860Z,98323.77
2018-05-17T09:36:18.619Z,98326.44
2018-05-17T09:37:21.972Z,98310.67
2018-05-17T09:38:24.838Z,98323.16
2018-05-17T09:39:27.620Z,98328.64
2018-05-17T09:40:30.411Z,98319.10
2018-05-17T09:41:33.220Z,98322.67
2018-05-17T09:42:36.095Z,98317.44
2018-05-17T09:43:39.260Z,98318.44
2018-05-17T09:44:42.154Z,98320.01
2018-05-17T09:45:44.941Z,98325.15
2018-05-17T09:46:48.006Z,98328.98
2018-05-17T09:47:51.114Z,98318.17
2018-05-17T09:48:53.889Z,98325.34
2018-05-17T09:49:57.084Z,98317.48
2018-05-17T09:50:59.980Z,98322.23
2018-05-17T09:52:02.809Z,98313.08
2018-05-17T09:53:05.663Z,98315.41
2018-05-17T09:54:08.966Z,98308.98
2018-05-17T09:55:11.784Z,98297.52
2018-05-17T09:56:14.958Z,98316.61
2018-05-17T09:57:18.231Z,98319.51
2018-05-17T09:58:21.094Z,98323.11
2018-05-17T09:59:23.913Z,98318.54
2018-05-17T10:00:26.980Z,98321.08
2018-05-17T10:01:29.772Z,98321.74
2018-05-17T10:02:33.056Z,98319.14
2018-05-17T10:03:36.009Z,98309.70
2018-05-17T10:04:38.824Z,98305.23
2018-05-17T10:05:41.740Z,98307.85
2018-05-17T10:06:44.523Z,98309.73
2018-05-17T10:07:47.448Z,98314.44
2018-05-17T10:08:50.699Z,98316.27
2018-05-17T10:09:53.541Z,98316.66
2018-05-17T10:10:56.449Z,98314.36
2018-05-17T10:11:59.302Z,98313.09
2018-05-17T10:13:02.622Z,98318.66
2018-05-17T10:14:05.433Z,98317.09
2018-05-17T10:15:08.703Z,98321.23
2018-05-17T10:16:12.588Z,98317.02
2018-05-17T10:17:15.468Z,98312.77
2018-05-17T10:18:18.292Z,98317.14
2018-05-17T10:19:21.094Z,98318.22
2018-05-17T10:20:23.882Z,98313.33
2018-05-17T10:21:27.253Z,98315.57
2018-05-17T10:22:30.112Z,98314.97
2018-05-17T10:23:32.972Z,98311.81
2018-05-17T10:24:35.831Z,98301.09
2018-05-17T10:25:38.645Z,98308.20
2018-05-17T10:26:41.479Z,98310.80
2018-05-17T10:27:44.801Z,98310.70
2018-05-17T10:28:47.612Z,98313.95
2018-05-17T10:29:50.742Z,98305.03
2018-05-17T10:30:53.750Z,98303.41
2018-05-17T10:31:56.651Z,98305.80
2018-05-17T10:32:59.664Z,98308.08
2018-05-17T10:34:03.222Z,98305.34
2018-05-17T10:35:06.105Z,98306.88
2018-05-17T10:36:08.977Z,98300.09
2018-05-17T10:37:11.768Z,98299.63
2018-05-17T10:38:14.644Z,98304.19
2018-05-17T10:39:17.528Z,98305.88
2018-05-17T10:40:21.115Z,98308.09
2018-05-17T10:41:24.367Z,98299.16
2018-05-17T10:42:28.372Z,98282.72
2018-05-17T10:43:35.281Z,98304.45
2018-05-17T10:44:39.553Z,98306.02
2018-05-17T10:45:43.065Z,98305.58
2018-05-17T10:46:47.079Z,98305.97
2018-05-17T10:47:53.857Z,98299.36
2018-05-17T10:49:07.934Z,98311.50
2018-05-17T10:50:11.637Z,98307.22
2018-05-17T10:51:14.935Z,98298.28
2018-05-17T10:52:18.582Z,98310.98
2018-05-17T10:53:21.899Z,98297.74
2018-05-17T10:54:24.829Z,98305.57
2018-05-17T10:55:27.657Z,98306.45
2018-05-17T10:56:30.501Z,98303.10
2018-05-17T10:57:33.785Z,98303.87
2018-05-17T10:58:36.785Z,98309.39
2018-05-17T10:59:39.617Z,98302.95
2018-05-17T11:00:42.462Z,98298.22
2018-05-17T11:01:45.291Z,98296.58
2018-05-17T11:02:48.135Z,98296.31
2018-05-17T11:03:50.989Z,98301.24
2018-05-17T11:04:54.130Z,98299.77
2018-05-17T11:05:56.934Z,98296.02
2018-05-17T11:07:00.130Z,98290.27
2018-05-17T11:08:02.934Z,98294.04
2018-05-17T11:09:07.219Z,98291.94
2018-05-17T11:10:10.070Z,98294.98
2018-05-17T11:11:13.359Z,98295.05
2018-05-17T11:12:16.251Z,98306.73
2018-05-17T11:13:19.113Z,98297.50
2018-05-17T11:14:22.359Z,98290.45
2018-05-17T11:15:25.491Z,98290.49
2018-05-17T11:16:28.283Z,98297.59
2018-05-17T11:17:31.524Z,98294.48
2018-05-17T11:18:34.310Z,98288.69
2018-05-17T11:19:37.160Z,98287.79
2018-05-17T11:20:40.001Z,98284.32
2018-05-17T11:21:42.850Z,98287.06
2018-05-17T11:22:45.695Z,98283.66
2018-05-17T11:23:48.861Z,98289.08
2018-05-17T11:24:51.640Z,98281.36
2018-05-17T11:25:54.627Z,98288.28
2018-05-17T11:26:57.370Z,98283.86
2018-05-17T11:28:00.185Z,98287.51
2018-05-17T11:29:03.027Z,98289.66
2018-05-17T11:30:06.270Z,98287.83
2018-05-17T11:31:09.100Z,98281.59
2018-05-17T11:32:11.907Z,98282.27
2018-05-17T11:33:14.831Z,98290.81
2018-05-17T11:34:17.694Z,98284.28
2018-05-17T11:35:20.511Z,98288.86
2018-05-17T11:36:23.737Z,98287.66
2018-05-17T11:37:26.573Z,98281.98
2018-05-17T11:38:29.368Z,98273.01
2018-05-17T11:39:32.306Z,98281.98
2018-05-17T11:40:35.151Z,98274.62
2018-05-17T11:41:37.956Z,98282.64
2018-05-17T11:42:41.211Z,98279.20
2018-05-17T11:43:44.459Z,98279.36
2018-05-17T11:44:47.696Z,98279.12
2018-05-17T11:45:50.547Z,98284.88
2018-05-17T11:46:53.370Z,98287.69
2018-05-17T11:47:56.216Z,98281.33
2018-05-17T11:48:59.459Z,98278.20
2018-05-17T11:50:02.304Z,98283.08
2018-05-17T11:51:05.688Z,98277.28
2018-05-17T11:52:09.155Z,98278.64
2018-05-17T11:53:11.995Z,98282.92
2018-05-17T11:54:15.420Z,98282.50
2018-05-17T11:55:19.763Z,98289.31
2018-05-17T11:56:22.788Z,98285.78
2018-05-17T11:57:25.721Z,98281.17
2018-05-17T11:58:28.546Z,98284.48
2018-05-17T11:59:31.411Z,98286.86
2018-05-17T12:00:34.215Z,98282.28
2018-05-17T12:01:37.439Z,98280.47
2018-05-17T12:02:41.527Z,98280.95
2018-05-17T12:03:44.414Z,98289.36
2018-05-17T12:04:47.224Z,98287.76
2018-05-17T12:05:50.104Z,98277.67
2018-05-17T12:06:53.097Z,98288.31
2018-05-17T12:07:56.439Z,98282.89
2018-05-17T12:08:59.270Z,98277.81
2018-05-17T12:10:02.254Z,98276.31
2018-05-17T12:11:05.144Z,98275.80
2018-05-17T12:12:08.039Z,98273.84
2018-05-17T12:13:10.836Z,98276.13
2018-05-17T12:14:14.103Z,98275.14
2018-05-17T12:15:17.055Z,98274.22
2018-05-17T12:16:20.128Z,98281.70
2018-05-17T12:17:22.936Z,98278.94
2018-05-17T12:18:25.881Z,98278.02
2018-05-17T12:19:28.989Z,98276.45
2018-05-17T12:20:32.259Z,98279.44
2018-05-17T12:21:35.105Z,98271.92
2018-05-17T12:22:37.909Z,98270.65